createdAt,value
2022-07-29T00:01:45.674Z,19.22
2022-07-29T00:04:12.682Z,19.23
2022-07-29T00:06:40.095Z,19.03
2022-07-29T00:09:07.349Z,19.22
2022-07-29T00:11:34.028Z,19.14
2022-07-29T00:14:00.598Z,19.12
2022-07-29T00:16:27.155Z,19.12
2022-07-29T00:18:53.733Z,19.14
2022-07-29T00:21:20.372Z,19.12
2022-07-29T00:23:46.845Z,19.12
2022-07-29T00:26:13.322Z,19.13
2022-07-29T00:28:39.905Z,19.03
2022-07-29T00:31:06.478Z,19.13
2022-07-29T00:33:33.002Z,19.10
2022-07-29T00:35:59.475Z,19.03
2022-07-29T00:38:25.988Z,19.01
2022-07-29T00:40:52.464Z,19.00
2022-07-29T00:43:19.039Z,18.97
2022-07-29T00:45:45.909Z,18.90
2022-07-29T00:48:12.405Z,18.83
2022-07-29T00:50:39.508Z,18.83
2022-07-29T00:53:09.287Z,18.85
2022-07-29T00:55:36.438Z,18.87
2022-07-29T00:58:03.165Z,18.91
2022-07-29T01:00:30.986Z,18.93
2022-07-29T01:02:57.643Z,18.94
2022-07-29T01:05:25.733Z,18.96
2022-07-29T01:08:14.674Z,18.94
2022-07-29T01:10:42.357Z,18.99
2022-07-29T01:13:10.239Z,19.00
2022-07-29T01:16:04.067Z,19.01
2022-07-29T01:18:37.290Z,19.00
2022-07-29T01:21:45.801Z,19.00
2022-07-29T01:24:30.322Z,18.98
2022-07-29T01:27:19.994Z,18.94
2022-07-29T01:29:52.688Z,18.90
2022-07-29T01:32:28.658Z,18.89
2022-07-29T01:35:15.946Z,18.89
2022-07-29T01:37:48.129Z,18.55
2022-07-29T01:40:26.908Z,18.89
2022-07-29T01:42:56.821Z,18.89
2022-07-29T01:45:37.883Z,18.92
2022-07-29T01:48:12.975Z,18.98
2022-07-29T01:51:05.427Z,19.00
2022-07-29T01:53:43.780Z,19.04
2022-07-29T01:56:12.893Z,18.92
2022-07-29T01:58:42.484Z,18.97
2022-07-29T02:01:11.292Z,18.89
2022-07-29T02:03:39.250Z,18.90
2022-07-29T02:06:08.521Z,18.82
2022-07-29T02:08:36.191Z,18.82
2022-07-29T02:11:05.230Z,18.79
2022-07-29T02:13:33.774Z,18.73
2022-07-29T02:16:02.814Z,18.69
2022-07-29T02:18:31.693Z,18.60
2022-07-29T02:21:00.414Z,18.62
2022-07-29T02:23:27.461Z,18.61
2022-07-29T02:25:56.972Z,18.56
2022-07-29T02:28:27.656Z,18.57
2022-07-29T02:30:58.955Z,18.53
2022-07-29T02:33:27.458Z,18.56
2022-07-29T02:35:55.273Z,18.50
2022-07-29T02:38:41.662Z,18.55
2022-07-29T02:41:20.941Z,18.58
2022-07-29T02:43:56.743Z,18.46
2022-07-29T02:46:31.594Z,18.62
2022-07-29T02:49:13.549Z,18.61
2022-07-29T02:51:52.011Z,18.43
2022-07-29T02:54:30.593Z,18.63
2022-07-29T02:57:01.698Z,18.63
2022-07-29T02:59:31.672Z,18.55
2022-07-29T03:01:59.992Z,18.52
2022-07-29T03:04:30.189Z,18.45
2022-07-29T03:07:00.478Z,18.34
2022-07-29T03:09:27.542Z,18.29
2022-07-29T03:11:55.423Z,17.47
2022-07-29T03:14:23.863Z,17.81
2022-07-29T03:16:51.964Z,17.63
2022-07-29T03:19:19.427Z,17.56
2022-07-29T03:21:46.013Z,17.50
2022-07-29T03:24:25.944Z,17.41
2022-07-29T03:26:52.677Z,17.30
2022-07-29T03:29:19.195Z,17.19
2022-07-29T03:31:46.655Z,16.98
2022-07-29T03:34:15.194Z,16.82
2022-07-29T03:36:41.936Z,16.73
2022-07-29T03:39:10.226Z,16.51
2022-07-29T03:41:39.406Z,16.54
2022-07-29T03:44:08.432Z,16.45
2022-07-29T03:46:36.695Z,16.57
2022-07-29T03:49:05.661Z,16.57
2022-07-29T03:51:33.681Z,16.51
2022-07-29T03:54:05.038Z,16.50
2022-07-29T03:56:40.819Z,16.49
2022-07-29T03:59:08.133Z,16.49
2022-07-29T04:01:35.808Z,16.41
2022-07-29T04:04:03.426Z,16.29
2022-07-29T04:06:30.048Z,16.23
2022-07-29T04:08:56.518Z,16.22
2022-07-29T04:11:23.172Z,16.21
2022-07-29T04:13:49.661Z,16.20
2022-07-29T04:16:16.212Z,16.24
2022-07-29T04:18:42.851Z,16.19
2022-07-29T04:21:09.391Z,16.13
2022-07-29T04:23:35.868Z,16.16
2022-07-29T04:26:14.489Z,16.07
2022-07-29T04:28:41.431Z,16.13
2022-07-29T04:31:08.029Z,16.10
2022-07-29T04:33:34.580Z,16.07
2022-07-29T04:36:01.153Z,16.06
2022-07-29T04:38:27.608Z,16.03
2022-07-29T04:40:54.278Z,16.01
2022-07-29T04:43:23.170Z,16.07
2022-07-29T04:45:50.265Z,16.13
2022-07-29T04:48:17.370Z,16.19
2022-07-29T04:50:45.181Z,16.21
2022-07-29T04:53:12.015Z,16.23
2022-07-29T04:55:39.042Z,16.26
2022-07-29T04:58:05.862Z,16.26
2022-07-29T05:00:33.476Z,16.17
2022-07-29T05:03:00.341Z,16.17
2022-07-29T05:05:26.974Z,16.19
2022-07-29T05:07:53.708Z,16.20
2022-07-29T05:10:20.237Z,16.24
2022-07-29T05:12:46.782Z,15.90
2022-07-29T05:15:13.274Z,16.29
2022-07-29T05:17:39.845Z,16.31
2022-07-29T05:20:07.432Z,16.30
2022-07-29T05:22:34.044Z,16.35
2022-07-29T05:25:04.308Z,16.46
2022-07-29T05:27:33.542Z,16.55
2022-07-29T05:30:00.109Z,16.64
2022-07-29T05:32:26.577Z,16.73
2022-07-29T05:34:53.084Z,16.79
2022-07-29T05:37:21.072Z,16.82
2022-07-29T05:39:50.504Z,16.82
2022-07-29T05:42:23.076Z,16.84
2022-07-29T05:44:49.555Z,16.97
2022-07-29T05:47:16.064Z,17.09
2022-07-29T05:49:42.560Z,17.24
2022-07-29T05:52:09.879Z,17.37
2022-07-29T05:54:36.761Z,17.40
2022-07-29T05:57:04.091Z,17.49
2022-07-29T05:59:30.801Z,17.54
2022-07-29T06:01:58.275Z,17.62
2022-07-29T06:04:25.111Z,17.60
2022-07-29T06:06:51.650Z,17.51
2022-07-29T06:09:18.141Z,17.42
2022-07-29T06:11:44.623Z,17.41
2022-07-29T06:14:11.196Z,17.35
2022-07-29T06:16:38.112Z,17.36
2022-07-29T06:19:05.345Z,17.40
2022-07-29T06:21:31.929Z,17.47
2022-07-29T06:23:58.477Z,17.46
2022-07-29T06:26:30.827Z,17.44
2022-07-29T06:28:58.120Z,17.33
2022-07-29T06:31:24.811Z,17.33
2022-07-29T06:33:51.424Z,17.35
2022-07-29T06:36:21.280Z,17.39
2022-07-29T06:38:51.445Z,17.38
2022-07-29T06:41:19.234Z,17.29
2022-07-29T06:43:52.509Z,17.39
2022-07-29T06:46:23.225Z,17.46
2022-07-29T06:48:50.776Z,17.51
2022-07-29T06:51:22.165Z,17.49
2022-07-29T06:54:00.120Z,17.43
2022-07-29T06:56:38.263Z,17.11
2022-07-29T06:59:06.534Z,17.36
2022-07-29T07:01:33.477Z,17.32
2022-07-29T07:04:00.088Z,17.29
2022-07-29T07:06:26.833Z,17.19
2022-07-29T07:08:53.337Z,16.92
2022-07-29T07:11:20.033Z,16.80
2022-07-29T07:13:46.573Z,16.77
2022-07-29T07:16:13.183Z,16.64
2022-07-29T07:18:39.645Z,16.82
2022-07-29T07:21:06.687Z,16.77
2022-07-29T07:23:33.229Z,16.72
2022-07-29T07:25:59.675Z,16.73
2022-07-29T07:28:26.252Z,16.78
2022-07-29T07:30:53.024Z,16.61
2022-07-29T07:33:19.889Z,16.72
2022-07-29T07:35:46.671Z,16.79
2022-07-29T07:38:13.688Z,16.81
2022-07-29T07:40:40.199Z,16.84
2022-07-29T07:43:06.933Z,16.74
2022-07-29T07:45:34.037Z,16.71
2022-07-29T07:48:00.861Z,16.72
2022-07-29T07:50:27.567Z,16.71
2022-07-29T07:52:59.491Z,16.69
2022-07-29T07:55:27.080Z,16.77
2022-07-29T07:57:54.496Z,16.78
2022-07-29T08:00:23.762Z,16.71
2022-07-29T08:02:51.688Z,16.64
2022-07-29T08:05:19.298Z,16.61
2022-07-29T08:07:47.520Z,16.60
2022-07-29T08:10:16.110Z,16.74
2022-07-29T08:12:44.454Z,16.86
2022-07-29T08:15:10.996Z,16.93
2022-07-29T08:17:37.513Z,17.03
2022-07-29T08:20:04.955Z,17.17
2022-07-29T08:22:31.469Z,17.27
2022-07-29T08:24:57.947Z,17.35
2022-07-29T08:27:42.825Z,17.48
2022-07-29T08:30:11.217Z,17.63
2022-07-29T08:32:53.307Z,17.72
2022-07-29T08:35:24.331Z,17.82
2022-07-29T08:37:51.523Z,17.80
2022-07-29T08:40:18.092Z,18.06
2022-07-29T08:42:44.616Z,18.24
2022-07-29T08:45:11.533Z,18.44
2022-07-29T08:47:40.780Z,18.64
2022-07-29T08:50:11.423Z,18.88
2022-07-29T08:52:40.239Z,19.24
2022-07-29T08:55:08.449Z,19.55
2022-07-29T08:57:35.973Z,19.71
2022-07-29T09:00:11.842Z,20.42
2022-07-29T09:02:48.773Z,20.92
2022-07-29T09:05:15.720Z,21.36
2022-07-29T09:07:44.265Z,21.79
2022-07-29T09:10:11.290Z,22.08
2022-07-29T09:12:38.433Z,22.27
2022-07-29T09:15:05.458Z,22.36
2022-07-29T09:17:44.823Z,22.30
2022-07-29T09:20:19.590Z,22.23
2022-07-29T09:22:50.527Z,21.93
2022-07-29T09:25:33.643Z,22.08
2022-07-29T09:28:14.978Z,22.10
2022-07-29T09:30:52.056Z,22.05
2022-07-29T09:33:19.575Z,22.08
2022-07-29T09:35:56.550Z,22.13
2022-07-29T09:38:23.730Z,22.29
2022-07-29T09:41:05.486Z,22.40
2022-07-29T09:43:33.433Z,22.48
2022-07-29T09:46:14.385Z,22.54
2022-07-29T09:48:41.001Z,22.76
2022-07-29T09:51:21.281Z,22.84
2022-07-29T09:53:51.266Z,22.76
2022-07-29T09:56:19.634Z,22.99
2022-07-29T09:58:46.207Z,22.87
2022-07-29T10:01:13.371Z,22.87
2022-07-29T10:03:53.385Z,22.83
2022-07-29T10:06:19.958Z,22.81
2022-07-29T10:08:47.645Z,22.80
2022-07-29T10:11:15.177Z,22.49
2022-07-29T10:13:42.939Z,22.44
2022-07-29T10:16:10.471Z,22.33
2022-07-29T10:18:39.464Z,22.38
2022-07-29T10:21:06.348Z,22.38
2022-07-29T10:23:46.402Z,22.36
2022-07-29T10:26:15.454Z,22.18
2022-07-29T10:28:42.090Z,22.23
2022-07-29T10:31:33.342Z,22.14
2022-07-29T10:34:14.540Z,22.16
2022-07-29T10:37:02.089Z,22.12
2022-07-29T10:39:49.919Z,22.07
2022-07-29T10:42:33.527Z,22.26
2022-07-29T10:45:01.901Z,22.28
2022-07-29T10:47:28.759Z,22.33
2022-07-29T10:50:04.247Z,22.35
2022-07-29T10:52:59.291Z,22.40
2022-07-29T10:55:47.765Z,22.59
2022-07-29T10:58:22.334Z,22.87
2022-07-29T11:00:51.278Z,23.10
2022-07-29T11:03:49.300Z,23.43
2022-07-29T11:06:17.234Z,23.70
2022-07-29T11:08:44.715Z,23.84
2022-07-29T11:11:29.725Z,24.16
2022-07-29T11:13:56.951Z,24.43
2022-07-29T11:16:25.044Z,24.49
2022-07-29T11:19:29.774Z,24.69
2022-07-29T11:21:58.763Z,24.82
2022-07-29T11:24:32.063Z,24.98
2022-07-29T11:27:13.801Z,25.04
2022-07-29T11:32:50.101Z,25.05
2022-07-29T11:35:37.953Z,25.08
2022-07-29T11:38:31.860Z,25.11
2022-07-29T11:41:23.721Z,25.16
2022-07-29T11:43:54.985Z,25.11
2022-07-29T11:46:47.695Z,25.24
2022-07-29T11:49:19.537Z,25.24
2022-07-29T11:51:56.164Z,25.20
2022-07-29T11:54:27.802Z,25.41
2022-07-29T11:56:54.857Z,25.52
2022-07-29T11:59:22.321Z,25.50
2022-07-29T12:02:06.843Z,25.70
2022-07-29T12:04:55.272Z,25.89
2022-07-29T12:07:03.188Z,25.11
2022-07-29T12:07:34.696Z,25.92
2022-07-29T12:10:03.194Z,26.01
2022-07-29T12:12:29.884Z,26.24
2022-07-29T12:14:56.433Z,26.34
2022-07-29T12:17:30.846Z,26.38
2022-07-29T12:20:00.527Z,26.51
2022-07-29T12:22:41.403Z,26.58
2022-07-29T12:25:32.695Z,26.58
2022-07-29T12:28:01.665Z,26.59
2022-07-29T12:30:49.568Z,26.60
2022-07-29T12:33:28.398Z,26.77
2022-07-29T12:36:12.843Z,26.70
2022-07-29T12:38:44.090Z,26.68
2022-07-29T12:41:11.429Z,26.63
2022-07-29T12:43:37.927Z,26.66
2022-07-29T12:46:17.408Z,26.76
2022-07-29T12:48:44.749Z,26.81
2022-07-29T12:51:15.145Z,26.77
2022-07-29T12:53:41.754Z,26.77
2022-07-29T12:56:40.639Z,27.12
2022-07-29T12:59:23.109Z,27.05
2022-07-29T13:01:52.257Z,27.15
2022-07-29T13:04:27.799Z,27.15
2022-07-29T13:07:09.185Z,27.15
2022-07-29T13:09:42.368Z,27.21
2022-07-29T13:12:11.027Z,27.14
2022-07-29T13:14:40.896Z,27.12
2022-07-29T13:17:32.599Z,27.14
2022-07-29T13:20:10.222Z,27.26
2022-07-29T13:22:36.922Z,27.23
2022-07-29T13:25:03.766Z,27.27
2022-07-29T13:27:35.219Z,27.02
2022-07-29T13:30:04.376Z,27.26
2022-07-29T13:32:31.731Z,27.26
2022-07-29T13:35:01.122Z,27.14
2022-07-29T13:37:30.668Z,27.27
2022-07-29T13:39:58.086Z,27.39
2022-07-29T13:42:25.845Z,27.56
2022-07-29T13:44:52.978Z,27.40
2022-07-29T13:47:20.825Z,27.51
2022-07-29T13:49:47.373Z,27.53
2022-07-29T13:52:14.041Z,27.62
2022-07-29T13:54:42.540Z,27.64
2022-07-29T13:57:11.589Z,27.57
2022-07-29T13:59:38.599Z,27.49
2022-07-29T14:02:05.944Z,27.73
2022-07-29T14:04:33.201Z,27.42
2022-07-29T14:06:59.886Z,27.47
2022-07-29T14:09:30.634Z,27.52
2022-07-29T14:12:07.938Z,27.52
2022-07-29T14:14:34.482Z,27.60
2022-07-29T14:17:01.022Z,27.53
2022-07-29T14:19:28.060Z,27.69
2022-07-29T14:21:54.613Z,27.85
2022-07-29T14:24:23.877Z,27.76
2022-07-29T14:26:50.515Z,27.75
2022-07-29T14:29:17.137Z,27.88
2022-07-29T14:31:44.761Z,27.95
2022-07-29T14:34:11.355Z,28.01
2022-07-29T14:36:37.874Z,27.95
2022-07-29T14:39:04.961Z,27.85
2022-07-29T14:41:31.607Z,27.63
2022-07-29T14:43:58.764Z,27.55
2022-07-29T14:46:25.286Z,27.69
2022-07-29T14:48:51.847Z,27.41
2022-07-29T14:51:18.437Z,27.28
2022-07-29T14:53:44.962Z,27.34
2022-07-29T14:56:35.626Z,27.28
2022-07-29T14:58:58.328Z,27.17
2022-07-29T15:01:25.653Z,26.99
2022-07-29T15:03:56.807Z,27.09
2022-07-29T15:06:25.952Z,26.98
2022-07-29T15:08:52.473Z,26.82
2022-07-29T15:11:18.997Z,27.06
2022-07-29T15:13:45.509Z,27.39
2022-07-29T15:16:12.088Z,27.67
2022-07-29T15:18:39.326Z,27.91
2022-07-29T15:21:07.875Z,28.06
2022-07-29T15:23:38.129Z,28.10
2022-07-29T15:26:05.175Z,27.82
2022-07-29T15:28:31.769Z,27.68
2022-07-29T15:30:58.337Z,27.75
2022-07-29T15:33:24.879Z,27.74
2022-07-29T15:35:51.367Z,27.70
2022-07-29T15:38:18.016Z,27.78
2022-07-29T15:40:45.344Z,27.38
2022-07-29T15:43:12.574Z,27.32
2022-07-29T15:45:41.583Z,27.27
2022-07-29T15:48:14.618Z,27.27
2022-07-29T15:50:41.500Z,27.03
2022-07-29T15:53:08.004Z,27.06
2022-07-29T15:55:34.490Z,26.92
2022-07-29T15:58:01.032Z,26.97
2022-07-29T16:00:28.039Z,26.93
2022-07-29T16:02:54.536Z,26.82
2022-07-29T16:05:21.094Z,26.90
2022-07-29T16:07:47.633Z,26.86
2022-07-29T16:10:14.160Z,26.85
2022-07-29T16:12:40.718Z,26.92
2022-07-29T16:15:10.529Z,26.80
2022-07-29T16:17:38.333Z,26.89
2022-07-29T16:20:06.555Z,26.96
2022-07-29T16:22:33.068Z,26.88
2022-07-29T16:24:59.713Z,26.88
2022-07-29T16:27:35.507Z,26.82
2022-07-29T16:30:06.417Z,26.82
2022-07-29T16:32:32.923Z,26.90
2022-07-29T16:35:02.042Z,26.99
2022-07-29T16:37:33.543Z,27.03
2022-07-29T16:40:00.191Z,26.89
2022-07-29T16:42:45.539Z,26.90
2022-07-29T16:45:12.969Z,26.60
2022-07-29T16:47:39.618Z,26.83
2022-07-29T16:50:06.639Z,26.88
2022-07-29T16:52:33.625Z,26.86
2022-07-29T16:55:00.154Z,26.81
2022-07-29T16:57:26.656Z,26.69
2022-07-29T16:59:53.205Z,26.66
2022-07-29T17:02:20.014Z,26.57
2022-07-29T17:04:46.523Z,26.47
2022-07-29T17:07:13.035Z,26.39
2022-07-29T17:09:40.515Z,26.32
2022-07-29T17:12:07.191Z,26.21
2022-07-29T17:14:33.687Z,26.15
2022-07-29T17:17:02.303Z,26.17
2022-07-29T17:19:32.623Z,26.20
2022-07-29T17:22:08.441Z,26.04
2022-07-29T17:24:38.282Z,26.12
2022-07-29T17:27:05.895Z,26.02
2022-07-29T17:29:32.452Z,25.97
2022-07-29T17:32:00.051Z,25.96
2022-07-29T17:34:26.769Z,25.90
2022-07-29T17:36:53.300Z,25.93
2022-07-29T17:39:19.753Z,25.86
2022-07-29T17:41:46.899Z,25.88
2022-07-29T17:44:14.031Z,25.85
2022-07-29T17:46:40.728Z,25.80
2022-07-29T17:49:07.554Z,25.65
2022-07-29T17:51:34.072Z,25.62
2022-07-29T17:54:00.600Z,25.42
2022-07-29T17:56:27.175Z,25.61
2022-07-29T17:58:54.134Z,25.57
2022-07-29T18:01:20.979Z,25.45
2022-07-29T18:03:47.599Z,25.45
2022-07-29T18:06:14.142Z,25.46
2022-07-29T18:08:40.675Z,25.31
2022-07-29T18:11:07.197Z,25.22
2022-07-29T18:13:33.886Z,25.20
2022-07-29T18:16:00.963Z,25.15
2022-07-29T18:18:27.852Z,25.10
2022-07-29T18:20:54.555Z,25.01
2022-07-29T18:23:21.259Z,24.97
2022-07-29T18:25:47.952Z,24.89
2022-07-29T18:28:14.587Z,24.82
2022-07-29T18:30:41.904Z,24.71
2022-07-29T18:33:22.814Z,24.68
2022-07-29T18:35:52.294Z,24.64
2022-07-29T18:38:34.466Z,24.54
2022-07-29T18:41:00.963Z,24.42
2022-07-29T18:43:27.481Z,24.45
2022-07-29T18:45:53.998Z,24.36
2022-07-29T18:48:20.483Z,24.31
2022-07-29T18:50:46.990Z,24.29
2022-07-29T18:53:13.462Z,24.23
2022-07-29T18:55:39.992Z,24.21
2022-07-29T18:58:06.569Z,24.18
2022-07-29T19:00:33.103Z,24.12
2022-07-29T19:02:59.826Z,24.08
2022-07-29T19:05:26.448Z,24.02
2022-07-29T19:07:54.734Z,23.94
2022-07-29T19:10:21.383Z,23.89
2022-07-29T19:12:48.009Z,23.81
2022-07-29T19:15:19.959Z,23.69
2022-07-29T19:17:47.956Z,23.59
2022-07-29T19:20:14.801Z,23.42
2022-07-29T19:22:41.782Z,23.50
2022-07-29T19:25:09.241Z,23.42
2022-07-29T19:27:35.751Z,23.44
2022-07-29T19:30:03.437Z,23.40
2022-07-29T19:32:30.016Z,23.34
2022-07-29T19:35:15.204Z,23.28
2022-07-29T19:37:41.724Z,23.16
2022-07-29T19:40:09.969Z,23.16
2022-07-29T19:42:36.425Z,23.09
2022-07-29T19:45:03.307Z,23.03
2022-07-29T19:47:29.908Z,22.95
2022-07-29T19:49:56.381Z,22.88
2022-07-29T19:52:22.879Z,22.85
2022-07-29T19:54:49.370Z,22.62
2022-07-29T19:57:15.834Z,22.74
2022-07-29T19:59:42.689Z,22.50
2022-07-29T20:02:12.216Z,22.61
2022-07-29T20:04:39.244Z,22.56
2022-07-29T20:07:06.923Z,22.53
2022-07-29T20:09:33.533Z,22.48
2022-07-29T20:12:00.048Z,22.37
2022-07-29T20:14:26.824Z,22.32
2022-07-29T20:16:54.403Z,22.31
2022-07-29T20:19:21.082Z,22.25
2022-07-29T20:21:47.587Z,22.19
2022-07-29T20:24:14.109Z,22.14
2022-07-29T20:26:41.945Z,22.03
2022-07-29T20:29:09.171Z,22.11
2022-07-29T20:31:35.982Z,22.02
2022-07-29T20:34:02.526Z,22.00
2022-07-29T20:36:29.142Z,22.01
2022-07-29T20:38:56.088Z,21.95
2022-07-29T20:41:22.935Z,21.79
2022-07-29T20:43:52.786Z,21.95
2022-07-29T20:46:19.442Z,21.94
2022-07-29T20:48:46.982Z,21.89
2022-07-29T20:51:14.448Z,21.86
2022-07-29T20:53:41.047Z,21.72
2022-07-29T20:56:07.953Z,21.81
2022-07-29T20:58:36.270Z,21.74
2022-07-29T21:01:04.224Z,21.66
2022-07-29T21:03:31.098Z,21.56
2022-07-29T21:05:57.588Z,21.51
2022-07-29T21:08:24.333Z,21.25
2022-07-29T21:10:50.943Z,21.44
2022-07-29T21:13:18.439Z,21.38
2022-07-29T21:15:48.739Z,21.32
2022-07-29T21:18:27.405Z,21.27
2022-07-29T21:20:55.112Z,21.24
2022-07-29T21:23:21.902Z,21.16
2022-07-29T21:25:48.566Z,21.10
2022-07-29T21:28:27.414Z,21.04
2022-07-29T21:30:59.539Z,20.95
2022-07-29T21:33:28.028Z,20.92
2022-07-29T21:38:41.491Z,20.83
2022-07-29T21:41:08.176Z,20.79
2022-07-29T21:43:34.703Z,20.73
2022-07-29T21:46:01.409Z,20.71
2022-07-29T21:48:29.147Z,20.67
2022-07-29T21:50:56.070Z,20.60
2022-07-29T21:53:23.127Z,20.53
2022-07-29T21:55:56.815Z,20.42
2022-07-29T21:58:24.528Z,20.38
2022-07-29T22:00:51.088Z,20.32
2022-07-29T22:03:17.878Z,20.33
2022-07-29T22:05:44.729Z,20.28
2022-07-29T22:08:11.514Z,20.27
2022-07-29T22:10:38.084Z,20.26
2022-07-29T22:13:04.858Z,20.11
2022-07-29T22:15:32.436Z,20.13
2022-07-29T22:17:59.018Z,20.12
2022-07-29T22:20:26.032Z,19.98
2022-07-29T22:22:53.248Z,20.07
2022-07-29T22:25:20.083Z,20.02
2022-07-29T22:27:46.587Z,19.98
2022-07-29T22:30:13.649Z,19.91
2022-07-29T22:32:40.226Z,19.89
2022-07-29T22:35:07.570Z,19.86
2022-07-29T22:37:34.279Z,19.82
2022-07-29T22:40:01.272Z,19.58
2022-07-29T22:42:27.799Z,19.69
2022-07-29T22:44:54.327Z,19.65
2022-07-29T22:47:38.667Z,19.65
2022-07-29T22:50:07.836Z,19.60
2022-07-29T22:52:34.304Z,19.56
2022-07-29T22:55:00.882Z,19.54
2022-07-29T22:57:27.398Z,19.51
2022-07-29T22:59:53.883Z,19.42
2022-07-29T23:02:20.501Z,19.33
2022-07-29T23:04:46.995Z,19.26
2022-07-29T23:07:13.517Z,19.18
2022-07-29T23:09:39.995Z,19.12
2022-07-29T23:12:06.921Z,19.08
2022-07-29T23:14:33.440Z,18.98
2022-07-29T23:17:00.370Z,18.91
2022-07-29T23:19:27.389Z,18.84
2022-07-29T23:21:53.919Z,18.78
2022-07-29T23:24:20.398Z,18.54
2022-07-29T23:26:47.067Z,18.71
2022-07-29T23:29:13.609Z,18.67
2022-07-29T23:31:42.624Z,18.62
2022-07-29T23:34:10.722Z,18.38
2022-07-29T23:36:37.240Z,18.57
2022-07-29T23:39:03.876Z,18.55
2022-07-29T23:41:30.826Z,18.50
2022-07-29T23:43:57.751Z,18.49
2022-07-29T23:46:24.398Z,18.50
2022-07-29T23:48:51.012Z,18.47
2022-07-29T23:51:17.565Z,18.39
2022-07-29T23:53:53.308Z,18.33
2022-07-29T23:56:21.216Z,18.36
2022-07-29T23:58:47.747Z,18.34
